createdAt,value
2016-09-22T00:00:20.308Z,0
2016-09-22T00:01:22.294Z,0
2016-09-22T00:02:22.912Z,0
2016-09-22T00:03:23.605Z,0
2016-09-22T00:04:24.312Z,0
2016-09-22T00:05:25.295Z,0
2016-09-22T00:06:26.001Z,0
2016-09-22T00:07:26.685Z,0
2016-09-22T00:08:27.365Z,0
2016-09-22T00:09:28.081Z,0
2016-09-22T00:10:29.483Z,0
2016-09-22T00:11:30.221Z,0
2016-09-22T00:12:31.129Z,0
2016-09-22T00:13:31.894Z,0
2016-09-22T00:14:32.717Z,0
2016-09-22T00:15:33.784Z,0
2016-09-22T00:16:34.489Z,0
2016-09-22T00:17:35.247Z,0
2016-09-22T00:18:36.017Z,0
2016-09-22T00:19:36.707Z,0
2016-09-22T00:20:37.530Z,0
2016-09-22T00:21:38.285Z,0
2016-09-22T00:22:39.575Z,0
2016-09-22T00:23:40.179Z,0
2016-09-22T00:24:40.908Z,0
2016-09-22T00:25:41.648Z,0
2016-09-22T00:26:42.367Z,0
2016-09-22T00:27:43.104Z,0
2016-09-22T00:28:43.834Z,0
2016-09-22T00:29:44.597Z,0
2016-09-22T00:30:45.279Z,0
2016-09-22T00:31:45.983Z,0
2016-09-22T00:32:46.665Z,0
2016-09-22T00:33:47.346Z,0
2016-09-22T00:34:48.061Z,0
2016-09-22T00:35:48.888Z,0
2016-09-22T00:36:49.620Z,0
2016-09-22T00:37:50.347Z,0
2016-09-22T00:38:51.028Z,0
2016-09-22T00:39:52.901Z,0
2016-09-22T00:40:54.517Z,0
2016-09-22T00:41:55.556Z,0
2016-09-22T00:42:56.440Z,0
2016-09-22T00:43:57.132Z,0
2016-09-22T00:44:58.033Z,0
2016-09-22T00:45:58.758Z,0
2016-09-22T00:46:59.478Z,0
2016-09-22T00:48:01.530Z,0
2016-09-22T00:49:02.617Z,0
2016-09-22T00:50:03.797Z,0
2016-09-22T00:51:04.722Z,0
2016-09-22T00:52:05.764Z,0
2016-09-22T00:53:06.514Z,0
2016-09-22T00:54:07.231Z,0
2016-09-22T00:55:08.289Z,0
2016-09-22T00:56:09.250Z,0
2016-09-22T00:57:10.248Z,0
2016-09-22T00:58:11.248Z,0
2016-09-22T00:59:12.041Z,0
2016-09-22T01:00:12.784Z,0
2016-09-22T01:01:13.516Z,0
2016-09-22T01:02:14.222Z,0
2016-09-22T01:03:14.899Z,0
2016-09-22T01:04:15.574Z,0
2016-09-22T01:05:16.575Z,0
2016-09-22T01:06:17.275Z,0
2016-09-22T01:07:25.006Z,0
2016-09-22T01:08:26.141Z,0
2016-09-22T01:09:27.272Z,0
2016-09-22T01:10:28.440Z,0
2016-09-22T01:11:29.037Z,0
2016-09-22T01:12:29.882Z,0
2016-09-22T01:13:30.644Z,0
2016-09-22T01:14:31.351Z,0
2016-09-22T01:15:32.181Z,0
2016-09-22T01:16:32.911Z,0
2016-09-22T01:17:33.680Z,0
2016-09-22T01:18:34.441Z,0
2016-09-22T01:19:35.284Z,0
2016-09-22T01:20:35.946Z,0
2016-09-22T01:21:36.765Z,0
2016-09-22T01:22:37.453Z,0
2016-09-22T01:23:38.172Z,0
2016-09-22T01:24:38.938Z,0
2016-09-22T01:25:39.730Z,0
2016-09-22T01:26:40.444Z,0
2016-09-22T01:27:41.233Z,0
2016-09-22T01:28:42.078Z,0
2016-09-22T01:29:42.784Z,0
2016-09-22T01:30:43.477Z,0
2016-09-22T01:31:44.154Z,0
2016-09-22T01:32:44.873Z,0
2016-09-22T01:33:45.553Z,0
2016-09-22T01:34:46.241Z,0
2016-09-22T01:35:46.910Z,0
2016-09-22T01:36:47.610Z,0
2016-09-22T01:37:48.287Z,0
2016-09-22T01:38:48.970Z,0
2016-09-22T01:39:49.649Z,0
2016-09-22T01:40:50.370Z,0
2016-09-22T01:41:51.066Z,0
2016-09-22T01:42:51.753Z,0
2016-09-22T01:43:52.433Z,0
2016-09-22T01:44:53.121Z,0
2016-09-22T01:45:53.818Z,0
2016-09-22T01:46:54.503Z,0
2016-09-22T01:47:55.183Z,0
2016-09-22T01:48:55.878Z,0
2016-09-22T01:49:56.561Z,0
2016-09-22T01:50:57.247Z,0
2016-09-22T01:51:57.963Z,0
2016-09-22T01:52:58.647Z,0
2016-09-22T01:53:59.351Z,0
2016-09-22T01:55:00.028Z,0
2016-09-22T01:56:00.728Z,0
2016-09-22T01:57:01.410Z,0
2016-09-22T01:58:02.096Z,0
2016-09-22T01:59:02.778Z,0
2016-09-22T02:00:03.488Z,0
2016-09-22T02:01:04.201Z,0
2016-09-22T02:02:04.873Z,0
2016-09-22T02:03:05.557Z,0
2016-09-22T02:04:06.234Z,0
2016-09-22T02:05:06.916Z,0
2016-09-22T02:06:07.610Z,0
2016-09-22T02:07:08.292Z,0
2016-09-22T02:08:09.001Z,0
2016-09-22T02:09:09.683Z,0
2016-09-22T02:10:10.376Z,0
2016-09-22T02:11:11.066Z,0
2016-09-22T02:12:11.752Z,0
2016-09-22T02:13:12.461Z,0
2016-09-22T02:14:13.204Z,0
2016-09-22T02:15:13.887Z,0
2016-09-22T02:16:14.564Z,0
2016-09-22T02:17:15.256Z,0
2016-09-22T02:18:15.947Z,0
2016-09-22T02:19:16.631Z,0
2016-09-22T02:20:17.304Z,0
2016-09-22T02:21:17.998Z,0
2016-09-22T02:22:18.684Z,0
2016-09-22T02:23:19.388Z,0
2016-09-22T02:24:20.063Z,0
2016-09-22T02:25:20.733Z,0
2016-09-22T02:26:21.409Z,0
2016-09-22T02:27:22.082Z,0
2016-09-22T02:28:22.751Z,0
2016-09-22T02:29:23.446Z,0
2016-09-22T02:30:24.150Z,0
2016-09-22T02:31:24.865Z,0
2016-09-22T02:32:25.543Z,0
2016-09-22T02:33:26.215Z,0
2016-09-22T02:34:26.913Z,0
2016-09-22T02:35:27.662Z,0
2016-09-22T02:36:28.341Z,0
2016-09-22T02:37:29.054Z,0
2016-09-22T02:38:29.728Z,0
2016-09-22T02:39:30.405Z,0
2016-09-22T02:40:31.134Z,0
2016-09-22T02:41:31.822Z,0
2016-09-22T02:42:32.517Z,0
2016-09-22T02:43:33.199Z,0
2016-09-22T02:44:33.916Z,0
2016-09-22T02:45:34.594Z,0
2016-09-22T02:46:35.317Z,0
2016-09-22T02:47:36.008Z,0
2016-09-22T02:48:36.700Z,0
2016-09-22T02:49:37.424Z,0
2016-09-22T02:50:38.110Z,0
2016-09-22T02:51:38.812Z,0
2016-09-22T02:52:39.534Z,0
2016-09-22T02:53:40.234Z,0
2016-09-22T02:54:40.930Z,0
2016-09-22T02:55:41.616Z,0
2016-09-22T02:56:42.322Z,0
2016-09-22T02:57:43.016Z,0
2016-09-22T02:58:43.713Z,0
2016-09-22T02:59:44.392Z,0
2016-09-22T03:00:45.087Z,0
2016-09-22T03:01:45.764Z,0
2016-09-22T03:02:46.461Z,0
2016-09-22T03:03:47.174Z,0
2016-09-22T03:04:47.857Z,0
2016-09-22T03:05:48.601Z,0
2016-09-22T03:06:49.336Z,0
2016-09-22T03:07:50.025Z,0
2016-09-22T03:08:50.697Z,0
2016-09-22T03:09:51.376Z,0
2016-09-22T03:10:52.096Z,0
2016-09-22T03:11:52.795Z,0
2016-09-22T03:12:53.488Z,0
2016-09-22T03:13:54.168Z,0
2016-09-22T03:14:54.857Z,0
2016-09-22T03:15:55.580Z,0
2016-09-22T03:16:56.274Z,0
2016-09-22T03:17:56.982Z,0
2016-09-22T03:18:57.674Z,0
2016-09-22T03:19:58.351Z,0
2016-09-22T03:20:59.044Z,0
2016-09-22T03:21:59.720Z,0
2016-09-22T03:23:00.398Z,0
2016-09-22T03:24:01.096Z,0
2016-09-22T03:25:01.788Z,0
2016-09-22T03:26:02.485Z,0
2016-09-22T03:27:03.157Z,0
2016-09-22T03:28:03.847Z,0
2016-09-22T03:29:04.551Z,0
2016-09-22T03:30:05.244Z,0
2016-09-22T03:31:05.919Z,0
2016-09-22T03:32:06.650Z,0
2016-09-22T03:33:07.332Z,0
2016-09-22T03:34:08.015Z,0
2016-09-22T03:35:08.688Z,0
2016-09-22T03:36:09.367Z,0
2016-09-22T03:37:10.080Z,0
2016-09-22T03:38:10.757Z,0
2016-09-22T03:39:11.446Z,0
2016-09-22T03:40:12.121Z,0
2016-09-22T03:41:12.879Z,0
2016-09-22T03:42:13.576Z,0
2016-09-22T03:43:14.262Z,0
2016-09-22T03:44:14.948Z,0
2016-09-22T03:45:15.662Z,0
2016-09-22T03:46:16.393Z,0
2016-09-22T03:47:17.099Z,0
2016-09-22T03:48:17.822Z,0
2016-09-22T03:49:18.508Z,0
2016-09-22T03:50:19.187Z,0
2016-09-22T03:51:19.905Z,0
2016-09-22T03:52:20.596Z,0
2016-09-22T03:53:21.289Z,0
2016-09-22T03:54:21.978Z,0
2016-09-22T03:55:22.662Z,0
2016-09-22T03:56:23.338Z,0
2016-09-22T03:57:24.039Z,0
2016-09-22T03:58:24.749Z,0
2016-09-22T03:59:25.424Z,0
2016-09-22T04:00:26.116Z,0
2016-09-22T04:01:26.810Z,0
2016-09-22T04:02:27.497Z,0
2016-09-22T04:03:28.192Z,0
2016-09-22T04:04:28.886Z,0
2016-09-22T04:05:29.604Z,0
2016-09-22T04:06:30.283Z,0
2016-09-22T04:07:30.984Z,0
2016-09-22T04:08:31.667Z,0
2016-09-22T04:09:32.339Z,0
2016-09-22T04:10:33.025Z,0
2016-09-22T04:11:33.706Z,0
2016-09-22T04:12:34.401Z,0
2016-09-22T04:13:35.079Z,0
2016-09-22T04:14:35.765Z,0
2016-09-22T04:15:36.470Z,0
2016-09-22T04:16:37.147Z,0
2016-09-22T04:17:37.830Z,0
2016-09-22T04:18:38.544Z,0
2016-09-22T04:19:39.254Z,0
2016-09-22T04:20:39.973Z,0
2016-09-22T04:21:40.666Z,0
2016-09-22T04:22:41.366Z,0
2016-09-22T04:23:42.049Z,0
2016-09-22T04:24:42.721Z,0
2016-09-22T04:25:43.399Z,0
2016-09-22T04:26:44.089Z,0
2016-09-22T04:27:44.775Z,0
2016-09-22T04:28:45.470Z,0
2016-09-22T04:29:46.160Z,0
2016-09-22T04:30:46.851Z,0
2016-09-22T04:31:47.533Z,0
2016-09-22T04:32:48.209Z,0
2016-09-22T04:33:48.887Z,0
2016-09-22T04:34:49.591Z,0
2016-09-22T04:35:50.278Z,0
2016-09-22T04:36:50.957Z,0
2016-09-22T04:37:51.659Z,0
2016-09-22T04:38:52.339Z,0
2016-09-22T04:39:53.023Z,0
2016-09-22T04:40:53.700Z,0
2016-09-22T04:41:54.401Z,0
2016-09-22T04:42:55.133Z,0
2016-09-22T04:43:55.865Z,0
2016-09-22T04:44:56.552Z,0
2016-09-22T04:45:57.253Z,0
2016-09-22T04:46:57.932Z,0
2016-09-22T04:47:58.600Z,0
2016-09-22T04:48:59.292Z,0
2016-09-22T04:50:00.002Z,0
2016-09-22T04:51:00.725Z,0
2016-09-22T04:52:01.435Z,0
2016-09-22T04:53:02.122Z,0
2016-09-22T04:54:02.803Z,0
2016-09-22T04:55:03.495Z,0
2016-09-22T04:56:04.174Z,0
2016-09-22T04:57:04.856Z,0
2016-09-22T04:58:05.563Z,0
2016-09-22T04:59:06.250Z,0
2016-09-22T05:00:06.925Z,0
2016-09-22T05:01:07.608Z,5
2016-09-22T05:02:08.319Z,5
2016-09-22T05:03:09.027Z,5
2016-09-22T05:04:09.717Z,5
2016-09-22T05:05:10.437Z,5
2016-09-22T05:06:11.125Z,5
2016-09-22T05:07:11.819Z,10
2016-09-22T05:08:12.499Z,10
2016-09-22T05:09:13.201Z,10
2016-09-22T05:10:13.889Z,10
2016-09-22T05:11:14.570Z,15
2016-09-22T05:12:15.294Z,15
2016-09-22T05:13:15.961Z,15
2016-09-22T05:14:16.636Z,20
2016-09-22T05:15:17.323Z,20
2016-09-22T05:16:17.997Z,20
2016-09-22T05:17:18.694Z,25
2016-09-22T05:18:19.394Z,25
2016-09-22T05:19:20.078Z,30
2016-09-22T05:20:20.772Z,30
2016-09-22T05:21:21.496Z,35
2016-09-22T05:22:22.181Z,35
2016-09-22T05:23:22.884Z,40
2016-09-22T05:24:23.562Z,40
2016-09-22T05:25:24.245Z,40
2016-09-22T05:26:24.955Z,40
2016-09-22T05:27:25.642Z,45
2016-09-22T05:28:26.326Z,50
2016-09-22T05:29:27.011Z,50
2016-09-22T05:30:27.730Z,50
2016-09-22T05:31:28.428Z,50
2016-09-22T05:32:29.332Z,55
2016-09-22T05:33:29.829Z,55
2016-09-22T05:34:30.527Z,60
2016-09-22T05:35:31.218Z,60
2016-09-22T05:36:31.948Z,65
2016-09-22T05:37:32.642Z,65
2016-09-22T05:38:33.388Z,70
2016-09-22T05:39:34.069Z,75
2016-09-22T05:40:34.760Z,80
2016-09-22T05:41:35.518Z,80
2016-09-22T05:42:36.281Z,85
2016-09-22T05:43:36.975Z,85
2016-09-22T05:44:37.687Z,85
2016-09-22T05:45:38.388Z,85
2016-09-22T05:46:39.146Z,90
2016-09-22T05:47:39.916Z,90
2016-09-22T05:48:40.619Z,90
2016-09-22T05:49:41.323Z,95
2016-09-22T05:50:42.049Z,95
2016-09-22T05:51:42.809Z,100
2016-09-22T05:52:43.547Z,100
2016-09-22T05:53:44.285Z,105
2016-09-22T05:54:44.970Z,110
2016-09-22T05:55:45.783Z,110
2016-09-22T05:56:46.513Z,115
2016-09-22T05:57:47.603Z,115
2016-09-22T05:58:48.300Z,115
2016-09-22T05:59:48.990Z,120
2016-09-22T06:00:49.708Z,120
2016-09-22T06:01:50.433Z,125
2016-09-22T06:02:51.160Z,130
2016-09-22T06:03:51.858Z,135
2016-09-22T06:04:52.568Z,140
2016-09-22T06:05:53.271Z,145
2016-09-22T06:06:53.974Z,150
2016-09-22T06:07:54.673Z,155
2016-09-22T06:08:55.380Z,160
2016-09-22T06:09:56.073Z,160
2016-09-22T06:10:56.771Z,165
2016-09-22T06:11:57.482Z,165
2016-09-22T06:12:58.179Z,170
2016-09-22T06:13:58.883Z,170
2016-09-22T06:14:59.577Z,170
2016-09-22T06:16:00.276Z,175
2016-09-22T06:17:01.033Z,180
2016-09-22T06:18:01.723Z,185
2016-09-22T06:19:02.413Z,190
2016-09-22T06:20:03.110Z,195
2016-09-22T06:21:03.829Z,200
2016-09-22T06:22:04.528Z,200
2016-09-22T06:23:05.227Z,195
2016-09-22T06:24:05.986Z,190
2016-09-22T06:25:06.678Z,190
2016-09-22T06:26:07.371Z,185
2016-09-22T06:27:08.062Z,185
2016-09-22T06:28:08.797Z,190
2016-09-22T06:29:09.514Z,190
2016-09-22T06:30:10.710Z,200
2016-09-22T06:31:11.407Z,205
2016-09-22T06:32:12.112Z,210
2016-09-22T06:33:13.489Z,215
2016-09-22T06:34:14.180Z,220
2016-09-22T06:35:15.266Z,225
2016-09-22T06:36:15.973Z,230
2016-09-22T06:37:16.861Z,240
2016-09-22T06:38:17.548Z,235
2016-09-22T06:39:18.248Z,240
2016-09-22T06:40:18.940Z,245
2016-09-22T06:41:19.662Z,270
2016-09-22T06:42:20.368Z,290
2016-09-22T06:43:21.082Z,320
2016-09-22T06:44:21.824Z,340
2016-09-22T06:45:22.515Z,340
2016-09-22T06:46:23.207Z,375
2016-09-22T06:47:23.898Z,395
2016-09-22T06:48:24.582Z,385
2016-09-22T06:49:25.271Z,300
2016-09-22T06:50:25.993Z,345
2016-09-22T06:51:26.678Z,365
2016-09-22T06:52:27.383Z,370
2016-09-22T06:53:28.083Z,370
2016-09-22T06:54:28.788Z,365
2016-09-22T06:55:29.468Z,370
2016-09-22T06:56:30.191Z,380
2016-09-22T06:57:31.053Z,380
2016-09-22T06:58:32.357Z,405
2016-09-22T06:59:34.057Z,440
2016-09-22T07:00:35.353Z,460
2016-09-22T07:01:36.059Z,480
2016-09-22T07:02:36.989Z,505
2016-09-22T07:03:38.223Z,510
2016-09-22T07:04:39.927Z,525
2016-09-22T07:05:40.878Z,545
2016-09-22T07:06:42.163Z,580
2016-09-22T07:07:42.867Z,595
2016-09-22T07:08:43.560Z,545
2016-09-22T07:09:44.263Z,450
2016-09-22T07:10:45.008Z,310
2016-09-22T07:11:45.700Z,260
2016-09-22T07:12:46.405Z,235
2016-09-22T07:13:47.098Z,225
2016-09-22T07:14:47.798Z,210
2016-09-22T07:15:48.522Z,200
2016-09-22T07:16:49.219Z,195
2016-09-22T07:17:49.919Z,190
2016-09-22T07:18:51.029Z,180
2016-09-22T07:19:51.754Z,170
2016-09-22T07:20:52.449Z,165
2016-09-22T07:21:53.224Z,165
2016-09-22T07:22:53.939Z,160
2016-09-22T07:23:54.638Z,155
2016-09-22T07:24:55.947Z,155
2016-09-22T07:25:56.907Z,150
2016-09-22T07:26:58.899Z,150
2016-09-22T07:27:59.768Z,155
2016-09-22T07:29:01.770Z,155
2016-09-22T07:30:03.291Z,155
2016-09-22T07:31:04.001Z,160
